Airfield :
LOGIN :

Register | Disclaimer

   EN    FR    IT 

 










Legend :    VFR   Marginal VFR   IFR   Intensive IFR   Very Intensive IFR
Visi :
Ceiling :
>= 8 km
>= 3000ft
5 to 8 km
1000 to 3000 ft
1500m to 5 km
500 to 1000 ft
800 to 1500m
200 to 500 ft
< 800m
< 200 ft
Symbols :   Thunderstorms  Fog  Heavy snow  Heavy precipitations  Wind > 20 kt
SIGMETs :     Misc.  Thunderstorms  Icing  Turbulence  Mountain Waves  Volcanic Ashes






- Airport Elevation : 465 ft
- IATA code : OMR


LROD - Oradea International

CURRENT METAR :
  • 080600Z 10005KT CAVOK 08/M02 Q1031

EXPIRED METARs :
  • 080530Z 10005KT CAVOK 06/M01 Q1031
  • 080500Z 12006KT CAVOK 04/M02 Q1031
  • 080430Z AUTO 11007KT 9999 NCD 03/M03 Q1031
  • 080400Z AUTO 11008KT 9999 NCD 02/M03 Q1031
  • 080330Z AUTO 12005KT 9999 NCD 02/M03 Q1031
  • 080300Z AUTO 12006KT 9999 NCD 02/M03 Q1031

TAF TAF LROD
Valid from the 08 at 06:00 until the 08 at 15:00 UTC


080500Z 0806/0815 11007KT CAVOK



MET'MAP, your aeronautical weather chart ! - Copyright ORBIFLY December 2007 - Disclaimer

ORBIFLY MET'MAP TEAM :

Programming & Development : Alexandra Zaïnal
Concept & original design : Baudouin d'Aumeries
Assistance for programming : Marc-Olivier Méhu
Technical & hardware support : Manuel Goepfert

Contact : metmap@orbifly.com




SOURCES & CREDITS :

   NOAA